Flight Track Log - Related Links

Times and Time Zones

All times are in EDT time to prevent confusion due to time zone crossing. See the EGF3773 flight status page for this flight to view local times or setup timezone preferences in your user account.

Time Position Orientation Groundspeed Altitude Reporting Facility
EDT Latitude Longitude Course Direction KTS MPH feet Rate Location/Type
Thu 08:18:51 PM 39.8833 -104.5500 79° East 201 231 7,600  Level Denver TRACON
Thu 08:19:51 PM 39.9000 -104.4667 75° East 277 319 9,400 1,567 Climbing Denver TRACON
Thu 08:20:00 PM 39.9363 -104.1820 73° East  Level FlightAware Approximate
Thu 08:21:00 PM 39.9667 -104.0214 90° East  Level FlightAware Approximate
Thu 08:21:05 PM 39.9356 -104.3206 72° East 341 392 11,100  Level Denver Center
Thu 08:22:00 PM 39.9937 -103.8606 79° East  Level FlightAware Approximate
Thu 08:22:07 PM 39.9656 -104.1833 74° East 391 450 12,700  Level Denver Center
Thu 08:23:00 PM 40.0262 -103.7004 79° East  Level FlightAware Approximate
Thu 08:23:08 PM 39.9850 -104.0369 80° East 411 473 14,900  Level Denver Center
Thu 08:24:00 PM 40.0482 -103.5457 79° East  Level FlightAware Approximate
Thu 08:24:10 PM 40.0019 -103.8778 82° East 415 478 17,200  Level Denver Center
Thu 08:25:12 PM 40.0267 -103.7267 78° East 433 498 18,500 1,452 Climbing Denver Center
Thu 08:26:14 PM 40.0542 -103.5675 77° East 449 517 20,200 1,597 Climbing Denver Center
Thu 08:27:16 PM 40.0819 -103.3994 78° East 469 540 21,800 1,548 Climbing Denver Center
Thu 08:28:18 PM 40.1097 -103.2303 78° East 472 543 23,400 1,500 Climbing Denver Center
Thu 08:29:20 PM 40.1417 -103.0286 78° East 480 552 24,900 1,210 Climbing Denver Center
Thu 08:30:22 PM 40.1678 -102.8506 79° East 492 566 25,900 1,016 Climbing Denver Center
Thu 08:31:24 PM 40.1953 -102.6786 78° East 504 580 27,000 1,258 Climbing Denver Center
Thu 08:32:26 PM 40.2264 -102.4778 78° East 506 582 28,500 1,306 Climbing Denver Center
Thu 08:33:28 PM 40.2533 -102.3050 78° East 506 582 29,700 976 Climbing Denver Center
Thu 08:34:29 PM 40.2742 -102.1600 79° East 508 585 30,500 1,024 Climbing Denver Center
Thu 08:35:31 PM 40.3097 -101.9258 79° East 514 592 31,800 1,161 Climbing Denver Center
Thu 08:36:33 PM 40.3406 -101.7189 79° East 516 594 32,900 581 Climbing Denver Center
Thu 08:37:35 PM 40.3658 -101.5397 79° East 522 601 33,000 581 Climbing Denver Center
Thu 08:38:37 PM 40.3925 -101.3583 79° East 529 609 34,100 1,065 Climbing Denver Center
Thu 08:39:39 PM 40.4225 -101.1489 79° East 526 605 35,200 1,016 Climbing Denver Center
Thu 08:40:41 PM 40.4469 -100.9714 80° East 521 600 36,200 878 Climbing Denver Center
Thu 08:41:42 PM 40.4978 -100.8047 68° East 520 598 37,000 390 Climbing Denver Center
Thu 08:42:44 PM 40.5589 -100.6433 63° Northeast 520 598 37,000  Level Denver Center
Thu 08:43:46 PM 40.6386 -100.4256 64° Northeast 523 602 37,000  Level Denver Center
Thu 08:44:48 PM 40.6992 -100.2611 64° Northeast 526 605 37,000  Level Denver Center
Thu 08:45:49 PM 40.7692 -100.0694 64° Northeast 523 602 37,000  Level Denver Center
Thu 08:47:03 PM 40.8303 -99.9017 64° Northeast 531 611 37,000  Level Denver Center
Thu 08:48:05 PM 40.9069 -99.6897 64° Northeast 525 604 37,000  Level Denver Center
Thu 08:49:19 PM 40.9700 -99.5147 64° Northeast 526 605 37,000  Level Denver Center
Thu 08:50:21 PM 41.0325 -99.3392 65° Northeast 525 604 37,000  Level Denver Center
Thu 08:51:23 PM 41.1186 -99.0942 65° Northeast 526 605 37,000  Level Denver Center
Thu 08:51:48 PM 41.1433 -99.0244 65° Northeast 527 606 37,000  Level Minneapolis Center
Thu 08:52:24 PM 41.1675 -98.9536 66° East 526 605 37,000  Level Denver Center
Thu 08:52:50 PM 41.2044 -98.8494 65° Northeast 526 605 37,000  Level Minneapolis Center
Thu 08:53:52 PM 41.2550 -98.7075 65° Northeast 527 606 37,000  Level Minneapolis Center
Thu 08:54:55 PM 41.3261 -98.4967 66° East 524 603 37,000  Level Minneapolis Center
Thu 08:55:57 PM 41.3586 -98.2856 78° East 529 609 37,000  Level Minneapolis Center
Thu 08:56:58 PM 41.3847 -98.1339 77° East 525 604 37,000  Level Minneapolis Center
Thu 08:58:13 PM 41.4269 -97.8881 77° East 526 605 37,000  Level Minneapolis Center
Thu 08:59:15 PM 41.4656 -97.6600 77° East 526 605 37,000  Level Minneapolis Center
Thu 09:00:17 PM 41.4978 -97.4681 77° East 528 608 37,000  Level Minneapolis Center
Thu 09:01:19 PM 41.5289 -97.2761 78° East 529 609 37,000  Level Minneapolis Center
Thu 09:02:21 PM 41.5594 -97.0850 78° East 527 606 37,000  Level Minneapolis Center
Thu 09:03:23 PM 41.5978 -96.8536 77° East 530 610 37,000  Level Minneapolis Center
Thu 09:04:37 PM 41.6278 -96.6592 78° East 531 611 37,000  Level Minneapolis Center
Thu 09:05:40 PM 41.6644 -96.4253 78° East 533 613 37,000  Level Minneapolis Center
Thu 09:06:42 PM 41.6944 -96.2297 78° East 532 612 37,000  Level Minneapolis Center
Thu 09:07:44 PM 41.7244 -96.0336 78° East 532 612 37,000  Level Minneapolis Center
Thu 09:08:46 PM 41.7550 -95.8375 78° East 533 613 37,000  Level Minneapolis Center
Thu 09:09:48 PM 41.7836 -95.6414 79° East 534 615 37,000  Level Minneapolis Center
Thu 09:10:50 PM 41.8117 -95.4442 79° East 536 617 37,000  Level Minneapolis Center
Thu 09:11:52 PM 41.8458 -95.2103 79° East 532 612 37,000  Level Minneapolis Center
Thu 09:12:54 PM 41.8739 -95.0158 79° East 530 610 37,000  Level Minneapolis Center
Thu 09:13:56 PM 41.9017 -94.8172 79° East 538 619 37,000  Level Minneapolis Center
Thu 09:15:10 PM 41.9283 -94.6194 80° East 538 619 37,000  Level Minneapolis Center
Thu 09:16:13 PM 41.9608 -94.3822 79° East 538 619 37,000  Level Minneapolis Center
Thu 09:17:15 PM 41.9875 -94.1831 80° East 540 621 37,000  Level Minneapolis Center
Thu 09:18:17 PM 42.0147 -93.9814 80° East 547 629 37,000  Level Minneapolis Center
Thu 09:19:19 PM 42.0428 -93.7769 79° East 541 623 37,000  Level Minneapolis Center
Thu 09:20:21 PM 42.0739 -93.5400 80° East 541 623 37,000  Level Minneapolis Center
Thu 09:21:23 PM 42.0989 -93.3447 80° East 535 616 37,000  Level Minneapolis Center
Thu 09:22:25 PM 42.1236 -93.1503 80° East 535 616 37,000  Level Minneapolis Center
Thu 09:23:27 PM 42.1478 -92.9544 80° East 535 616 37,000 -387 Level Minneapolis Center
Thu 09:24:29 PM 42.1711 -92.7628 81° East 527 606 36,200 -968 Descending Minneapolis Center
Thu 09:25:31 PM 42.1989 -92.5356 81° East 520 598 35,000 -774 Descending Minneapolis Center
Thu 09:26:33 PM 42.2219 -92.3417 81° East 525 604 34,600 -677 Descending Minneapolis Center
Thu 09:27:35 PM 42.2439 -92.1503 81° East 526 605 33,600 -871 Descending Minneapolis Center
Thu 09:28:37 PM 42.2619 -91.9994 81° East 520 598 32,800 -1,248 Descending Minneapolis Center
Thu 09:29:40 PM 42.2914 -91.7344 81° East 515 593 31,000 -1,524 Descending Chicago Center
Thu 09:30:43 PM 42.3128 -91.5453 81° East 518 596 29,600 -960 Descending Chicago Center
Thu 09:31:45 PM 42.3319 -91.3614 82° East 506 582 29,000 -290 Descending Chicago Center
Thu 09:32:47 PM 42.3511 -91.1786 82° East 501 577 29,000  Level Chicago Center
Thu 09:33:49 PM 42.3761 -90.9547 81° East 507 583 29,000  Level Chicago Center
Thu 09:34:50 PM 42.3956 -90.7664 82° East 511 588 29,000 -293 Level Chicago Center
Thu 09:35:52 PM 42.4158 -90.5775 82° East 515 593 28,400 -871 Descending Chicago Center
Thu 09:36:54 PM 42.4333 -90.3939 83° East 499 574 27,200 -1,403 Descending Chicago Center
Thu 09:37:56 PM 42.4517 -90.2131 82° East 490 564 25,500 -1,887 Descending Chicago Center
Thu 09:38:58 PM 42.4742 -89.9903 82° East 501 577 23,300 -1,935 Descending Chicago Center
Thu 09:40:00 PM 42.4722 -89.7958 91° East 481 554 21,500 -1,742 Descending Chicago Center
Thu 09:41:02 PM 42.4592 -89.6150 96° East 483 556 19,700 -1,694 Descending Chicago Center
Thu 09:42:04 PM 42.4472 -89.4411 95° East 469 540 18,000 -1,512 Descending Chicago Center
Thu 09:43:05 PM 42.4353 -89.2761 96° East 450 518 16,600 -1,512 Descending Chicago Center
Thu 09:44:07 PM 42.4225 -89.1114 96° East 444 511 14,900 -1,645 Descending Chicago Center
Thu 09:45:09 PM 42.4106 -88.9497 96° East 437 503 13,200 -1,548 Descending Chicago Center
Thu 09:46:11 PM 42.3950 -88.7661 96° East 425 489 11,700 -1,258 Descending Chicago Center
Thu 09:47:13 PM 42.3836 -88.6144 96° East 410 472 10,600 -823 Descending Chicago Center
Thu 09:48:15 PM 42.3661 -88.4694 99° East 400 460 10,000 -293 Descending Chicago Center
Thu 09:49:16 PM 42.3225 -88.3569 118° Southeast 373 429 10,000  Level Chicago Center
Thu 09:50:18 PM 42.2419 -88.2250 129° Southeast 380 437 10,000 -194 Level Chicago Center
Thu 09:51:20 PM 42.1792 -88.1258 130° Southeast 356 410 9,600 -807 Descending Chicago Center
Thu 09:52:17 PM 42.1167 -88.0500 138° Southeast 311 358 8,400 -1,179 Descending Chicago TRACON
Thu 09:53:17 PM 42.1000 -87.9500 103° East 293 337 7,300 -700 Descending Chicago TRACON
Thu 09:54:17 PM 42.1000 -87.8500 90° East 242 278 7,000 -200 Descending Chicago TRACON
Thu 09:55:17 PM 42.0833 -87.7833 109° East 220 253 6,900 -600 Descending Chicago TRACON
Thu 09:56:17 PM 42.1000 -87.7000 75° East 205 236 5,800 -1,050 Descending Chicago TRACON
Thu 09:57:17 PM 42.0667 -87.6333 124° Southeast 206 237 4,800 -1,100 Descending Chicago TRACON
Thu 09:58:17 PM 42.0333 -87.6833 228° Southwest 178 205 3,600 -950 Descending Chicago TRACON
Thu 09:59:17 PM 42.0167 -87.7333 246° West 178 205 2,900 -700 Descending Chicago TRACON

Login

Don't have an account? Register now (free) for customized features, flight alerts, and more!